createdAt,value
2018-05-10T00:00:27.003Z,46.50
2018-05-10T00:02:55.245Z,46.70
2018-05-10T00:05:23.496Z,47.10
2018-05-10T00:07:51.760Z,47.30
2018-05-10T00:10:19.945Z,47.50
2018-05-10T00:12:48.185Z,49.00
2018-05-10T00:15:16.443Z,50.60
2018-05-10T00:17:45.464Z,52.10
2018-05-10T00:20:13.779Z,52.10
2018-05-10T00:22:42.089Z,52.20
2018-05-10T00:25:11.088Z,53.50
2018-05-10T00:27:39.333Z,53.50
2018-05-10T00:30:08.730Z,54.10
2018-05-10T00:32:37.036Z,54.20
2018-05-10T00:35:06.049Z,54.00
2018-05-10T00:37:34.309Z,54.00
2018-05-10T00:40:02.905Z,53.70
2018-05-10T00:42:31.122Z,53.80
2018-05-10T00:44:59.333Z,53.40
2018-05-10T00:47:28.325Z,53.60
2018-05-10T00:49:57.334Z,53.30
2018-05-10T00:52:25.555Z,53.30
2018-05-10T00:54:53.765Z,52.40
2018-05-10T00:57:22.778Z,51.70
2018-05-10T00:59:51.055Z,51.70
2018-05-10T01:02:19.297Z,51.50
2018-05-10T01:04:48.332Z,51.30
2018-05-10T01:07:16.493Z,51.30
2018-05-10T01:09:45.093Z,51.50
2018-05-10T01:12:13.320Z,51.80
2018-05-10T01:14:41.620Z,51.90
2018-05-10T01:17:09.840Z,52.20
2018-05-10T01:19:38.052Z,51.50
2018-05-10T01:22:07.044Z,51.20
2018-05-10T01:24:36.033Z,50.90
2018-05-10T01:27:05.018Z,51.10
2018-05-10T01:29:33.249Z,51.10
2018-05-10T01:32:01.488Z,52.60
2018-05-10T01:34:30.484Z,53.00
2018-05-10T01:36:58.832Z,53.00
2018-05-10T01:39:27.056Z,53.20
2018-05-10T01:41:55.320Z,53.10
2018-05-10T01:44:23.585Z,53.30
2018-05-10T01:46:51.896Z,53.10
2018-05-10T01:49:20.081Z,53.20
2018-05-10T01:51:48.323Z,53.20
2018-05-10T01:54:16.588Z,53.00
2018-05-10T01:56:44.868Z,53.20
2018-05-10T01:59:13.141Z,53.00
2018-05-10T02:01:41.345Z,52.40
2018-05-10T02:04:09.587Z,53.50
2018-05-10T02:06:38.560Z,54.10
2018-05-10T02:09:07.576Z,54.70
2018-05-10T02:11:35.772Z,54.70
2018-05-10T02:14:04.033Z,55.10
2018-05-10T02:16:32.224Z,54.40
2018-05-10T02:19:00.456Z,55.10
2018-05-10T02:21:29.443Z,55.50
2018-05-10T02:23:58.428Z,54.80
2018-05-10T02:26:27.410Z,54.00
2018-05-10T02:28:55.628Z,54.20
2018-05-10T02:31:23.846Z,53.90
2018-05-10T02:33:52.082Z,53.80
2018-05-10T02:36:20.301Z,54.80
2018-05-10T02:38:48.533Z,55.40
2018-05-10T02:41:16.793Z,55.70
2018-05-10T02:43:45.013Z,55.60
2018-05-10T02:46:13.268Z,55.80
2018-05-10T02:48:41.485Z,55.80
2018-05-10T02:51:09.704Z,55.60
2018-05-10T02:53:37.916Z,56.10
2018-05-10T02:56:06.148Z,55.60
2018-05-10T02:58:34.418Z,55.80
2018-05-10T03:01:02.679Z,55.70
2018-05-10T03:03:31.653Z,55.80
2018-05-10T03:05:59.905Z,55.80
2018-05-10T03:08:28.137Z,55.90
2018-05-10T03:10:56.379Z,55.90
2018-05-10T03:13:24.595Z,56.00
2018-05-10T03:15:52.824Z,56.10
2018-05-10T03:18:21.132Z,55.60
2018-05-10T03:20:49.400Z,55.70
2018-05-10T03:23:18.374Z,54.70
2018-05-10T03:25:46.601Z,54.70
2018-05-10T03:28:14.848Z,54.70
2018-05-10T03:30:43.090Z,54.90
2018-05-10T03:33:11.303Z,56.60
2018-05-10T03:35:39.539Z,56.70
2018-05-10T03:38:07.848Z,58.10
2018-05-10T03:40:36.103Z,59.20
2018-05-10T03:43:05.276Z,58.70
2018-05-10T03:45:33.520Z,58.70
2018-05-10T03:48:01.735Z,58.30
2018-05-10T03:50:29.953Z,56.00
2018-05-10T03:52:58.169Z,55.20
2018-05-10T03:55:26.447Z,55.50
2018-05-10T03:57:55.393Z,57.50
2018-05-10T04:00:23.612Z,57.40
2018-05-10T04:06:17.077Z,61.70
2018-05-10T04:08:57.122Z,61.40
2018-05-10T04:11:28.760Z,61.90
2018-05-10T04:13:56.988Z,62.50
2018-05-10T04:16:25.192Z,62.90
2018-05-10T04:18:54.169Z,62.40
2018-05-10T04:21:23.152Z,62.30
2018-05-10T04:23:51.376Z,62.30
2018-05-10T04:26:19.628Z,62.50
2018-05-10T04:28:47.864Z,61.70
2018-05-10T04:31:16.090Z,61.90
2018-05-10T04:33:44.321Z,61.70
2018-05-10T04:36:12.545Z,61.50
2018-05-10T04:38:40.820Z,61.00
2018-05-10T04:41:09.032Z,60.90
2018-05-10T04:43:37.235Z,60.70
2018-05-10T04:46:06.248Z,61.90
2018-05-10T04:48:34.448Z,61.10
2018-05-10T04:51:02.701Z,61.10
2018-05-10T04:53:30.939Z,61.00
2018-05-10T04:55:59.147Z,61.10
2018-05-10T04:58:27.354Z,61.60
2018-05-10T05:00:55.586Z,61.70
2018-05-10T05:03:24.590Z,63.20
2018-05-10T05:05:53.559Z,63.70
2018-05-10T05:08:22.544Z,63.80
2018-05-10T05:10:50.803Z,63.70
2018-05-10T05:13:19.028Z,63.80
2018-05-10T05:15:47.247Z,64.60
2018-05-10T05:18:15.479Z,66.20
2018-05-10T05:20:43.762Z,65.80
2018-05-10T05:23:12.283Z,65.30
2018-05-10T05:25:40.496Z,65.10
2018-05-10T05:28:09.476Z,66.10
2018-05-10T05:30:38.482Z,65.80
2018-05-10T05:33:06.756Z,65.70
2018-05-10T05:35:35.733Z,66.50
2018-05-10T05:38:04.791Z,67.00
2018-05-10T05:40:33.040Z,67.80
2018-05-10T05:43:01.277Z,67.70
2018-05-10T05:45:30.291Z,70.70
2018-05-10T05:47:58.517Z,71.50
2018-05-10T05:50:26.730Z,72.30
2018-05-10T05:52:55.716Z,72.40
2018-05-10T05:55:24.700Z,73.90
2018-05-10T05:57:53.718Z,74.30
2018-05-10T06:00:21.950Z,74.10
2018-05-10T06:02:50.188Z,74.00
2018-05-10T06:05:18.406Z,74.50
2018-05-10T06:07:46.653Z,73.90
2018-05-10T06:10:14.901Z,75.30
2018-05-10T06:12:43.124Z,74.00
2018-05-10T06:15:11.370Z,74.20
2018-05-10T06:17:39.664Z,74.80
2018-05-10T06:20:08.149Z,74.70
2018-05-10T06:22:36.373Z,74.20
2018-05-10T06:25:04.682Z,73.00
2018-05-10T06:27:32.809Z,72.00
2018-05-10T06:30:02.129Z,73.40
2018-05-10T06:32:30.356Z,73.20
2018-05-10T06:34:58.573Z,72.50
2018-05-10T06:37:26.845Z,73.40
2018-05-10T06:39:55.052Z,73.80
2018-05-10T06:42:23.304Z,74.00
2018-05-10T06:44:51.519Z,74.30
2018-05-10T06:47:19.753Z,74.40
2018-05-10T06:49:47.999Z,74.20
2018-05-10T06:52:17.002Z,73.20
2018-05-10T06:54:45.320Z,73.10
2018-05-10T06:57:13.452Z,73.70
2018-05-10T06:59:41.676Z,73.30
2018-05-10T07:02:09.924Z,74.30
2018-05-10T07:04:38.155Z,74.90
2018-05-10T07:07:07.135Z,73.40
2018-05-10T07:09:35.523Z,72.60
2018-05-10T07:12:03.597Z,72.50
2018-05-10T07:14:31.820Z,72.90
2018-05-10T07:17:00.045Z,72.40
2018-05-10T07:19:29.057Z,72.00
2018-05-10T07:21:58.025Z,72.30
2018-05-10T07:24:26.349Z,72.20
2018-05-10T07:26:54.571Z,71.00
2018-05-10T07:29:22.801Z,71.60
2018-05-10T07:31:51.279Z,71.20
2018-05-10T07:34:19.513Z,70.80
2018-05-10T07:36:48.520Z,70.90
2018-05-10T07:39:17.512Z,70.50
2018-05-10T07:41:45.789Z,70.40
2018-05-10T07:44:14.017Z,69.40
2018-05-10T07:46:42.223Z,68.10
2018-05-10T07:49:11.213Z,66.50
2018-05-10T07:51:40.224Z,67.30
2018-05-10T07:54:08.468Z,67.20
2018-05-10T07:56:36.856Z,67.90
2018-05-10T07:59:05.876Z,67.90
2018-05-10T08:01:34.101Z,67.90
2018-05-10T08:04:02.384Z,67.50
2018-05-10T08:06:30.597Z,67.00
2018-05-10T08:08:59.685Z,66.40
2018-05-10T08:11:28.692Z,66.30
2018-05-10T08:13:56.918Z,66.10
2018-05-10T08:16:25.179Z,67.00
2018-05-10T08:18:53.424Z,67.60
2018-05-10T08:21:30.684Z,68.30
2018-05-10T08:23:59.684Z,68.10
2018-05-10T08:26:27.910Z,68.10
2018-05-10T08:28:56.140Z,68.10
2018-05-10T08:31:24.356Z,68.50
2018-05-10T08:33:52.589Z,68.70
2018-05-10T08:36:20.801Z,68.20
2018-05-10T08:38:49.027Z,68.80
2018-05-10T08:41:18.036Z,68.40
2018-05-10T08:43:46.308Z,68.30
2018-05-10T08:46:14.577Z,68.50
2018-05-10T08:48:42.812Z,67.60
2018-05-10T08:51:11.237Z,68.00
2018-05-10T08:53:39.520Z,68.10
2018-05-10T08:56:07.756Z,67.10
2018-05-10T08:58:35.972Z,67.30
2018-05-10T09:01:04.192Z,67.30
2018-05-10T09:03:32.399Z,69.00
2018-05-10T09:06:02.307Z,70.40
2018-05-10T09:08:31.303Z,69.80
2018-05-10T09:10:59.548Z,69.80
2018-05-10T09:13:27.760Z,68.50
2018-05-10T09:15:56.046Z,68.10
2018-05-10T09:18:24.314Z,68.00
2018-05-10T09:20:52.557Z,67.50
2018-05-10T09:23:21.787Z,67.90
2018-05-10T09:25:50.028Z,68.70
2018-05-10T09:28:18.334Z,67.20
2018-05-10T09:30:47.313Z,67.20
2018-05-10T09:33:16.285Z,68.50
2018-05-10T09:35:44.526Z,68.40
2018-05-10T09:38:12.740Z,70.00
2018-05-10T09:40:41.019Z,70.10
2018-05-10T09:43:09.517Z,69.40
2018-05-10T09:45:38.523Z,71.00
2018-05-10T09:48:06.795Z,70.90
2018-05-10T09:50:35.067Z,71.30
2018-05-10T09:53:03.260Z,72.00
2018-05-10T09:55:31.488Z,71.90
2018-05-10T09:57:59.810Z,71.80
2018-05-10T10:00:29.971Z,73.20
2018-05-10T10:02:58.185Z,73.20
2018-05-10T10:05:26.471Z,73.20
2018-05-10T10:07:54.733Z,74.90
2018-05-10T10:10:22.968Z,74.20
2018-05-10T10:12:51.192Z,73.70
2018-05-10T10:15:19.436Z,73.70
2018-05-10T10:17:47.681Z,74.50
2018-05-10T10:20:15.912Z,75.00
2018-05-10T10:22:44.193Z,74.60
2018-05-10T10:25:12.483Z,74.10
2018-05-10T10:27:40.638Z,75.10
2018-05-10T10:30:09.175Z,75.40
2018-05-10T10:32:37.431Z,76.20
2018-05-10T10:35:05.656Z,76.70
2018-05-10T10:37:34.648Z,76.70
2018-05-10T10:40:03.938Z,78.40
2018-05-10T10:42:32.192Z,78.20
2018-05-10T10:45:00.410Z,78.20
2018-05-10T10:47:28.713Z,79.60
2018-05-10T10:49:56.864Z,80.50
2018-05-10T10:52:25.088Z,81.30
2018-05-10T10:54:53.298Z,81.20
2018-05-10T10:57:22.292Z,81.50
2018-05-10T10:59:50.521Z,81.40
2018-05-10T11:02:18.739Z,80.30
2018-05-10T11:04:47.092Z,81.10
2018-05-10T11:07:15.314Z,80.10
2018-05-10T11:09:43.585Z,81.20
2018-05-10T11:12:11.840Z,81.40
2018-05-10T11:14:40.128Z,82.30
2018-05-10T11:17:08.369Z,82.10
2018-05-10T11:19:36.582Z,80.90
2018-05-10T11:22:04.845Z,82.00
2018-05-10T11:24:33.069Z,80.80
2018-05-10T11:27:01.300Z,80.50
2018-05-10T11:29:29.518Z,79.70
2018-05-10T11:31:57.749Z,77.40
2018-05-10T11:34:25.970Z,77.40
2018-05-10T11:36:54.303Z,76.60
2018-05-10T11:39:22.547Z,76.10
2018-05-10T11:41:51.700Z,75.30
2018-05-10T11:44:19.907Z,76.40
2018-05-10T11:46:48.137Z,75.80
2018-05-10T11:49:16.354Z,77.60
2018-05-10T11:51:44.688Z,77.60
2018-05-10T11:54:12.936Z,77.30
2018-05-10T11:56:41.926Z,77.00
2018-05-10T11:59:10.956Z,78.00
2018-05-10T12:01:39.196Z,78.00
2018-05-10T12:04:08.200Z,77.30
2018-05-10T12:06:36.428Z,77.30
2018-05-10T12:09:04.641Z,77.80
2018-05-10T12:11:32.923Z,78.00
2018-05-10T12:14:01.220Z,76.80
2018-05-10T12:16:29.479Z,76.20
2018-05-10T12:18:57.698Z,76.70
2018-05-10T12:21:25.927Z,78.20
2018-05-10T12:23:54.165Z,77.90
2018-05-10T12:26:22.478Z,79.00
2018-05-10T12:28:50.928Z,80.00
2018-05-10T12:31:19.916Z,75.00
2018-05-10T12:33:48.148Z,74.80
2018-05-10T12:36:16.397Z,74.70
2018-05-10T12:38:44.624Z,73.80
2018-05-10T12:41:12.836Z,72.70
2018-05-10T12:43:41.824Z,73.20
2018-05-10T12:46:10.812Z,72.60
2018-05-10T12:48:39.823Z,72.00
2018-05-10T12:51:08.801Z,72.20
2018-05-10T12:53:37.032Z,72.00
2018-05-10T12:56:05.302Z,73.30
2018-05-10T12:58:33.517Z,73.70
2018-05-10T13:01:02.517Z,73.90
2018-05-10T13:03:31.515Z,74.70
2018-05-10T13:06:00.515Z,74.30
2018-05-10T13:08:28.797Z,74.40
2018-05-10T13:10:56.973Z,74.20
2018-05-10T13:13:25.266Z,74.60
2018-05-10T13:15:53.469Z,74.80
2018-05-10T13:18:21.739Z,74.20
2018-05-10T13:20:49.946Z,74.80
2018-05-10T13:23:18.953Z,74.30
2018-05-10T13:25:47.181Z,74.30
2018-05-10T13:28:15.412Z,73.90
2018-05-10T13:30:43.684Z,74.50
2018-05-10T13:33:11.925Z,75.10
2018-05-10T13:35:40.141Z,75.80
2018-05-10T13:38:08.442Z,75.90
2018-05-10T13:40:36.677Z,76.30
2018-05-10T13:43:05.906Z,77.80
2018-05-10T13:45:34.134Z,77.80
2018-05-10T13:48:03.206Z,80.40
2018-05-10T13:50:31.413Z,80.40
2018-05-10T13:53:00.439Z,81.60
2018-05-10T13:55:28.661Z,81.50
2018-05-10T13:57:56.877Z,80.80
2018-05-10T14:00:25.144Z,79.40
2018-05-10T14:02:53.495Z,79.60
2018-05-10T14:05:21.697Z,78.50
2018-05-10T14:07:49.995Z,78.70
2018-05-10T14:10:18.153Z,77.90
2018-05-10T14:12:46.417Z,76.70
2018-05-10T14:15:14.658Z,75.20
2018-05-10T14:17:42.880Z,74.70
2018-05-10T14:20:11.548Z,72.70
2018-05-10T14:22:39.717Z,71.10
2018-05-10T14:25:07.949Z,70.50
2018-05-10T14:27:36.157Z,68.70
2018-05-10T14:30:05.393Z,65.40
2018-05-10T14:32:33.651Z,65.40
2018-05-10T14:35:01.828Z,65.60
2018-05-10T14:37:30.043Z,65.60
2018-05-10T14:39:58.255Z,66.80
2018-05-10T14:42:27.320Z,67.30
2018-05-10T14:44:56.260Z,65.60
2018-05-10T14:47:24.468Z,65.50
2018-05-10T14:49:52.703Z,66.80
2018-05-10T14:52:21.699Z,67.30
2018-05-10T14:54:49.921Z,67.30
2018-05-10T14:57:18.160Z,67.80
2018-05-10T14:59:46.405Z,67.10
2018-05-10T15:02:14.589Z,66.70
2018-05-10T15:04:43.572Z,65.00
2018-05-10T15:07:12.564Z,65.30
2018-05-10T15:09:41.561Z,64.90
2018-05-10T15:12:10.594Z,64.50
2018-05-10T15:14:38.885Z,64.30
2018-05-10T15:17:07.122Z,64.60
2018-05-10T15:19:35.389Z,64.80
2018-05-10T15:22:04.348Z,64.80
2018-05-10T15:24:32.569Z,64.60
2018-05-10T15:27:00.796Z,65.60
2018-05-10T15:29:29.020Z,65.80
2018-05-10T15:31:57.237Z,64.70
2018-05-10T15:34:25.480Z,66.00
2018-05-10T15:36:53.718Z,65.00
2018-05-10T15:39:22.728Z,66.30
2018-05-10T15:41:51.124Z,66.10
2018-05-10T15:44:19.333Z,66.40
2018-05-10T15:46:47.560Z,66.90
2018-05-10T15:49:16.479Z,66.30
2018-05-10T15:51:44.882Z,66.70
2018-05-10T15:54:13.792Z,66.90
2018-05-10T15:56:42.783Z,68.00
2018-05-10T15:59:11.774Z,69.10
2018-05-10T16:01:40.080Z,69.00
2018-05-10T16:04:08.302Z,69.40
2018-05-10T16:06:36.599Z,69.30
2018-05-10T16:09:04.771Z,69.20
2018-05-10T16:11:33.031Z,68.90
2018-05-10T16:14:01.249Z,69.80
2018-05-10T16:16:29.542Z,68.80
2018-05-10T16:18:57.752Z,69.60
2018-05-10T16:21:25.990Z,69.50
2018-05-10T16:23:54.217Z,70.10
2018-05-10T16:26:22.444Z,69.90
2018-05-10T16:28:50.658Z,70.20
2018-05-10T16:31:18.917Z,69.50
2018-05-10T16:33:47.166Z,68.90
2018-05-10T16:36:15.386Z,70.20
2018-05-10T16:38:43.603Z,70.00
2018-05-10T16:41:11.832Z,70.00
2018-05-10T16:43:40.049Z,69.70
2018-05-10T16:46:08.289Z,69.70
2018-05-10T16:48:36.505Z,69.20
2018-05-10T16:51:04.793Z,69.60
2018-05-10T16:53:33.014Z,69.80
2018-05-10T16:56:01.243Z,69.70
2018-05-10T16:58:29.464Z,69.70
2018-05-10T17:00:57.693Z,70.10
2018-05-10T17:03:25.934Z,70.30
2018-05-10T17:05:54.925Z,69.20
2018-05-10T17:08:24.149Z,69.60
2018-05-10T17:10:53.593Z,69.40
2018-05-10T17:13:21.799Z,70.20
2018-05-10T17:15:51.115Z,69.50
2018-05-10T17:18:19.601Z,69.50
2018-05-10T17:20:48.787Z,69.10
2018-05-10T17:23:17.869Z,70.10
2018-05-10T17:25:46.077Z,69.60
2018-05-10T17:28:14.456Z,69.60
2018-05-10T17:30:42.776Z,69.60
2018-05-10T17:33:11.016Z,69.80
2018-05-10T17:35:39.232Z,70.10
2018-05-10T17:38:08.305Z,70.80
2018-05-10T17:40:36.530Z,71.20
2018-05-10T17:43:05.232Z,71.60
2018-05-10T17:45:33.520Z,72.00
2018-05-10T17:48:01.764Z,71.60
2018-05-10T17:50:30.770Z,72.20
2018-05-10T17:52:59.057Z,72.10
2018-05-10T17:55:27.260Z,72.20
2018-05-10T17:57:55.510Z,71.30
2018-05-10T18:00:23.720Z,71.50
2018-05-10T18:02:53.457Z,71.60
2018-05-10T18:05:22.460Z,71.30
2018-05-10T18:07:50.740Z,71.20
2018-05-10T18:10:19.036Z,71.10
2018-05-10T18:12:47.270Z,71.20
2018-05-10T18:15:15.484Z,71.40
2018-05-10T18:17:43.754Z,71.40
2018-05-10T18:20:12.248Z,71.70
2018-05-10T18:22:40.542Z,72.40
2018-05-10T18:25:08.705Z,73.00
2018-05-10T18:27:37.009Z,72.60
2018-05-10T18:30:05.590Z,72.60
2018-05-10T18:32:33.844Z,73.50
2018-05-10T18:35:02.086Z,73.90
2018-05-10T18:37:30.323Z,74.20
2018-05-10T18:39:58.637Z,74.40
2018-05-10T18:42:26.875Z,75.60
2018-05-10T18:44:55.091Z,76.20
2018-05-10T18:47:23.316Z,76.80
2018-05-10T18:49:51.562Z,76.70
2018-05-10T18:52:19.807Z,77.50
2018-05-10T18:54:48.144Z,77.90
2018-05-10T18:57:16.319Z,77.80
2018-05-10T18:59:44.641Z,78.10
2018-05-10T19:02:12.871Z,78.60
2018-05-10T19:04:41.112Z,78.40
2018-05-10T19:07:09.363Z,77.90
2018-05-10T19:09:37.590Z,78.20
2018-05-10T19:12:05.830Z,78.20
2018-05-10T19:14:34.071Z,77.90
2018-05-10T19:17:03.050Z,77.20
2018-05-10T19:19:31.309Z,77.10
2018-05-10T19:22:01.035Z,77.60
2018-05-10T19:24:29.269Z,77.60
2018-05-10T19:26:57.490Z,77.60
2018-05-10T19:29:25.703Z,77.40
2018-05-10T19:31:53.925Z,77.70
2018-05-10T19:34:22.232Z,77.70
2018-05-10T19:36:51.243Z,77.30
2018-05-10T19:39:19.465Z,77.30
2018-05-10T19:41:47.799Z,77.50
2018-05-10T19:44:16.033Z,77.10
2018-05-10T19:46:44.255Z,77.10
2018-05-10T19:49:12.484Z,77.00
2018-05-10T19:51:40.776Z,76.20
2018-05-10T19:54:09.870Z,76.70
2018-05-10T19:56:38.873Z,76.60
2018-05-10T19:59:07.856Z,76.40
2018-05-10T20:01:36.846Z,76.30
2018-05-10T20:04:05.841Z,76.40
2018-05-10T20:06:34.087Z,76.40
2018-05-10T20:09:02.332Z,76.20
2018-05-10T20:11:30.564Z,75.90
2018-05-10T20:13:58.803Z,75.80
2018-05-10T20:16:28.547Z,76.20
2018-05-10T20:18:57.564Z,76.20
2018-05-10T20:21:25.776Z,76.20
2018-05-10T20:23:54.100Z,76.60
2018-05-10T20:26:22.268Z,77.60
2018-05-10T20:28:50.497Z,77.60
2018-05-10T20:31:18.704Z,78.00
2018-05-10T20:33:47.716Z,78.50
2018-05-10T20:36:15.942Z,78.40
2018-05-10T20:38:44.166Z,78.00
2018-05-10T20:41:12.511Z,78.10
2018-05-10T20:43:40.725Z,79.70
2018-05-10T20:46:08.945Z,79.80
2018-05-10T20:48:37.196Z,79.40
2018-05-10T20:51:05.390Z,79.00
2018-05-10T20:53:33.623Z,78.50
2018-05-10T20:56:01.943Z,78.40
2018-05-10T20:58:30.056Z,78.70
2018-05-10T21:00:59.037Z,79.30
2018-05-10T21:03:28.042Z,79.20
2018-05-10T21:05:57.010Z,79.90
2018-05-10T21:08:25.224Z,79.90
2018-05-10T21:10:53.453Z,81.30
2018-05-10T21:13:22.423Z,81.80
2018-05-10T21:15:50.652Z,81.70
2018-05-10T21:18:19.652Z,81.20
2018-05-10T21:20:47.878Z,81.20
2018-05-10T21:23:16.324Z,79.80
2018-05-10T21:25:44.493Z,80.10
2018-05-10T21:28:12.722Z,79.70
2018-05-10T21:30:40.975Z,80.30
2018-05-10T21:33:09.204Z,81.00
2018-05-10T21:35:37.425Z,81.70
2018-05-10T21:38:05.649Z,82.30
2018-05-10T21:40:34.639Z,81.10
2018-05-10T21:43:03.152Z,81.10
2018-05-10T21:45:31.400Z,81.70
2018-05-10T21:48:00.366Z,83.00
2018-05-10T21:50:28.593Z,82.90
2018-05-10T21:52:56.849Z,83.40
2018-05-10T21:55:25.089Z,83.50
2018-05-10T21:57:53.365Z,84.00
2018-05-10T22:00:21.960Z,84.40
2018-05-10T22:02:50.980Z,85.20
2018-05-10T22:05:19.209Z,85.20
2018-05-10T22:07:47.416Z,85.30
2018-05-10T22:10:16.533Z,84.70
2018-05-10T22:12:45.147Z,84.60
2018-05-10T22:15:13.336Z,85.20
2018-05-10T22:17:43.073Z,85.10
2018-05-10T22:20:12.370Z,85.60
2018-05-10T22:22:40.627Z,85.60
2018-05-10T22:25:08.813Z,85.10
2018-05-10T22:27:37.788Z,85.40
2018-05-10T22:30:06.366Z,85.30
2018-05-10T22:32:34.537Z,86.00
2018-05-10T22:35:03.641Z,85.60
2018-05-10T22:37:31.791Z,85.70
2018-05-10T22:40:00.031Z,84.00
2018-05-10T22:42:28.301Z,83.20
2018-05-10T22:44:56.541Z,83.00
2018-05-10T22:47:24.753Z,83.80
2018-05-10T22:49:53.029Z,83.10
2018-05-10T22:52:21.294Z,82.30
2018-05-10T22:54:49.533Z,82.20
2018-05-10T22:57:17.769Z,83.20
2018-05-10T22:59:46.016Z,82.60
2018-05-10T23:02:14.301Z,83.30
2018-05-10T23:04:42.518Z,84.40
2018-05-10T23:07:10.731Z,85.30
2018-05-10T23:09:39.766Z,85.90
2018-05-10T23:12:07.926Z,85.90
2018-05-10T23:14:36.165Z,86.40
2018-05-10T23:17:04.388Z,86.30
2018-05-10T23:19:32.656Z,86.10
2018-05-10T23:22:00.884Z,86.00
2018-05-10T23:24:30.609Z,85.80
2018-05-10T23:26:58.829Z,85.80
2018-05-10T23:29:27.046Z,84.80
2018-05-10T23:31:55.361Z,85.80
2018-05-10T23:34:23.720Z,85.30
2018-05-10T23:36:52.613Z,85.60
2018-05-10T23:39:21.592Z,84.50
2018-05-10T23:41:50.611Z,83.70
2018-05-10T23:44:19.601Z,85.40
2018-05-10T23:46:47.829Z,85.30
2018-05-10T23:49:16.871Z,85.40
2018-05-10T23:51:45.149Z,85.40
2018-05-10T23:54:13.360Z,85.40
2018-05-10T23:56:41.746Z,86.00
2018-05-10T23:59:09.991Z,86.20
